Terminal Aerodrome Forecast
Issued by NWS Paducah, KY

Home | Current Version | Previous Version | Text Only | Print | Product List | Glossary On
Versions: 1 2 3 4 5 6 7 8 9 10 11 12 13 14 15 16 17 18 19 20 21
000
FTUS43 KPAH 012320
TAFPAH
TAF
KPAH 012320Z 0200/0224 01006KT P6SM OVC024
     FM020400 02002KT P6SM OVC015
     FM020800 00000KT 3SM BR OVC008
     FM021400 03007KT P6SM BKN020
     FM022100 03006KT P6SM SCT035=

USA.gov is the U.S. government's official web portal to all federal, state and local government web resources and services.